sensor_id;sensor_type;location;lat;lon;timestamp;pressure;altitude;pressure_sealevel;temperature;humidity
63556;BME280;49700;48.072;7.800;2024-03-06T00:01:33;99609.25;;;9.14;nan
63556;BME280;49700;48.072;7.800;2024-03-06T00:03:59;99612.06;;;9.11;nan
63556;BME280;49700;48.072;7.800;2024-03-06T00:06:24;99617.47;;;9.07;nan
63556;BME280;49700;48.072;7.800;2024-03-06T00:08:50;99610.97;;;8.99;nan
63556;BME280;49700;48.072;7.800;2024-03-06T00:11:15;99613.88;;;8.94;nan
63556;BME280;49700;48.072;7.800;2024-03-06T00:13:41;99624.53;;;8.91;nan
63556;BME280;49700;48.072;7.800;2024-03-06T00:16:06;99626.19;;;8.92;nan
63556;BME280;49700;48.072;7.800;2024-03-06T00:18:32;99621.03;;;8.91;nan
63556;BME280;49700;48.072;7.800;2024-03-06T00:20:57;99618.69;;;8.86;nan
63556;BME280;49700;48.072;7.800;2024-03-06T00:23:22;99617.41;;;8.77;nan
63556;BME280;49700;48.072;7.800;2024-03-06T00:25:48;99621.41;;;8.69;nan
63556;BME280;49700;48.072;7.800;2024-03-06T00:28:13;99623.53;;;8.62;nan
63556;BME280;49700;48.072;7.800;2024-03-06T00:30:39;99623.84;;;8.56;nan
63556;BME280;49700;48.072;7.800;2024-03-06T00:33:04;99622.25;;;8.53;nan
63556;BME280;49700;48.072;7.800;2024-03-06T00:35:30;99619.78;;;8.50;nan
63556;BME280;49700;48.072;7.800;2024-03-06T00:37:55;99622.69;;;8.46;nan
63556;BME280;49700;48.072;7.800;2024-03-06T00:40:21;99620.31;;;8.41;nan
63556;BME280;49700;48.072;7.800;2024-03-06T00:42:46;99628.38;;;8.36;nan
63556;BME280;49700;48.072;7.800;2024-03-06T00:45:12;99626.03;;;8.32;nan
63556;BME280;49700;48.072;7.800;2024-03-06T00:47:37;99633.09;;;8.30;nan
63556;BME280;49700;48.072;7.800;2024-03-06T00:50:03;99638.34;;;8.30;nan
63556;BME280;49700;48.072;7.800;2024-03-06T00:52:31;99634.78;;;8.31;nan
63556;BME280;49700;48.072;7.800;2024-03-06T00:54:56;99641.84;;;8.29;nan
63556;BME280;49700;48.072;7.800;2024-03-06T00:57:22;99644.56;;;8.27;nan
63556;BME280;49700;48.072;7.800;2024-03-06T00:59:47;99645.47;;;8.26;nan
63556;BME280;49700;48.072;7.800;2024-03-06T01:02:12;99645.47;;;8.26;nan
63556;BME280;49700;48.072;7.800;2024-03-06T01:04:38;99653.19;;;8.29;nan
63556;BME280;49700;48.072;7.800;2024-03-06T01:07:03;99658.09;;;8.35;nan
63556;BME280;49700;48.072;7.800;2024-03-06T01:09:29;99653.50;;;8.40;nan
63556;BME280;49700;48.072;7.800;2024-03-06T01:11:55;99660.22;;;8.45;nan
63556;BME280;49700;48.072;7.800;2024-03-06T01:14:20;99660.94;;;8.48;nan
63556;BME280;49700;48.072;7.800;2024-03-06T01:16:45;99653.81;;;8.50;nan
63556;BME280;49700;48.072;7.800;2024-03-06T01:19:11;99655.59;;;8.50;nan
63556;BME280;49700;48.072;7.800;2024-03-06T01:21:38;99657.22;;;8.52;nan
63556;BME280;49700;48.072;7.800;2024-03-06T01:24:03;99658.91;;;8.53;nan
63556;BME280;49700;48.072;7.800;2024-03-06T01:26:29;99661.53;;;8.53;nan
63556;BME280;49700;48.072;7.800;2024-03-06T01:28:54;99666.00;;;8.51;nan
63556;BME280;49700;48.072;7.800;2024-03-06T01:31:20;99658.16;;;8.51;nan
63556;BME280;49700;48.072;7.800;2024-03-06T01:33:45;99661.53;;;8.53;nan
63556;BME280;49700;48.072;7.800;2024-03-06T01:36:11;99669.38;;;8.53;nan
63556;BME280;49700;48.072;7.800;2024-03-06T01:38:47;99668.44;;;8.54;nan
63556;BME280;49700;48.072;7.800;2024-03-06T01:41:14;99667.69;;;8.52;nan
63556;BME280;49700;48.072;7.800;2024-03-06T01:43:40;99674.09;;;8.47;nan
63556;BME280;49700;48.072;7.800;2024-03-06T01:46:06;99677.66;;;8.46;nan
63556;BME280;49700;48.072;7.800;2024-03-06T01:48:32;99669.88;;;8.44;nan
63556;BME280;49700;48.072;7.800;2024-03-06T01:50:59;99666.47;;;8.42;nan
63556;BME280;49700;48.072;7.800;2024-03-06T01:53:29;99670.97;;;8.40;nan
63556;BME280;49700;48.072;7.800;2024-03-06T01:55:56;99667.72;;;8.35;nan
63556;BME280;49700;48.072;7.800;2024-03-06T01:58:23;99671.41;;;8.31;nan
63556;BME280;49700;48.072;7.800;2024-03-06T02:00:50;99670.56;;;8.30;nan
63556;BME280;49700;48.072;7.800;2024-03-06T02:03:19;99673.25;;;8.29;nan
63556;BME280;49700;48.072;7.800;2024-03-06T02:05:44;99666.50;;;8.25;nan
63556;BME280;49700;48.072;7.800;2024-03-06T02:08:10;99672.81;;;8.20;nan
63556;BME280;49700;48.072;7.800;2024-03-06T02:10:35;99678.00;;;8.22;nan
63556;BME280;49700;48.072;7.800;2024-03-06T02:13:01;99691.00;;;8.24;nan
63556;BME280;49700;48.072;7.800;2024-03-06T02:15:26;99694.38;;;8.26;nan
63556;BME280;49700;48.072;7.800;2024-03-06T02:17:52;99685.59;;;8.27;nan
63556;BME280;49700;48.072;7.800;2024-03-06T02:20:25;99688.97;;;8.29;nan
63556;BME280;49700;48.072;7.800;2024-03-06T02:22:51;99689.72;;;8.31;nan
63556;BME280;49700;48.072;7.800;2024-03-06T02:25:17;99682.66;;;8.33;nan
63556;BME280;49700;48.072;7.800;2024-03-06T02:27:43;99689.06;;;8.27;nan
63556;BME280;49700;48.072;7.800;2024-03-06T02:30:09;99691.13;;;8.20;nan
63556;BME280;49700;48.072;7.800;2024-03-06T02:32:34;99681.69;;;8.18;nan
63556;BME280;49700;48.072;7.800;2024-03-06T02:35:03;99681.09;;;8.13;nan
63556;BME280;49700;48.072;7.800;2024-03-06T02:37:29;99683.72;;;8.13;nan
63556;BME280;49700;48.072;7.800;2024-03-06T02:39:54;99683.09;;;8.08;nan
63556;BME280;49700;48.072;7.800;2024-03-06T02:42:28;99678.94;;;8.04;nan
63556;BME280;49700;48.072;7.800;2024-03-06T02:45:03;99680.94;;;7.98;nan
63556;BME280;49700;48.072;7.800;2024-03-06T02:47:29;99680.94;;;7.98;nan
63556;BME280;49700;48.072;7.800;2024-03-06T02:49:54;99682.50;;;8.03;nan
63556;BME280;49700;48.072;7.800;2024-03-06T02:52:21;99675.31;;;8.06;nan
63556;BME280;49700;48.072;7.800;2024-03-06T02:54:46;99672.53;;;8.09;nan
63556;BME280;49700;48.072;7.800;2024-03-06T02:57:12;99671.53;;;8.12;nan
63556;BME280;49700;48.072;7.800;2024-03-06T02:59:39;99668.84;;;8.13;nan
63556;BME280;49700;48.072;7.800;2024-03-06T03:02:05;99666.97;;;8.15;nan
63556;BME280;49700;48.072;7.800;2024-03-06T03:04:31;99667.75;;;8.17;nan
63556;BME280;49700;48.072;7.800;2024-03-06T03:06:57;99671.16;;;8.19;nan
63556;BME280;49700;48.072;7.800;2024-03-06T03:09:23;99669.38;;;8.20;nan
63556;BME280;49700;48.072;7.800;2024-03-06T03:11:48;99669.53;;;8.17;nan
63556;BME280;49700;48.072;7.800;2024-03-06T03:14:14;99675.94;;;8.11;nan
63556;BME280;49700;48.072;7.800;2024-03-06T03:16:39;99675.31;;;8.06;nan
63556;BME280;49700;48.072;7.800;2024-03-06T03:19:07;99675.56;;;8.02;nan
63556;BME280;49700;48.072;7.800;2024-03-06T03:22:42;99679.03;;;8.02;nan
63556;BME280;49700;48.072;7.800;2024-03-06T03:37:15;99685.78;;;8.06;nan
63556;BME280;49700;48.072;7.800;2024-03-06T03:55:09;99691.50;;;7.97;nan
63556;BME280;49700;48.072;7.800;2024-03-06T03:58:20;99698.41;;;7.98;nan
63556;BME280;49700;48.072;7.800;2024-03-06T04:02:05;99708.09;;;7.96;nan
63556;BME280;49700;48.072;7.800;2024-03-06T04:05:35;99707.28;;;7.95;nan
63556;BME280;49700;48.072;7.800;2024-03-06T04:12:08;99708.66;;;8.03;nan
63556;BME280;49700;48.072;7.800;2024-03-06T04:25:26;99718.19;;;8.04;nan
63556;BME280;49700;48.072;7.800;2024-03-06T04:28:51;99718.97;;;8.06;nan
63556;BME280;49700;48.072;7.800;2024-03-06T04:31:59;99728.50;;;8.07;nan
63556;BME280;49700;48.072;7.800;2024-03-06T04:35:00;99730.44;;;8.03;nan
63556;BME280;49700;48.072;7.800;2024-03-06T04:37:48;99735.09;;;7.96;nan
63556;BME280;49700;48.072;7.800;2024-03-06T04:40:46;99732.59;;;7.95;nan
63556;BME280;49700;48.072;7.800;2024-03-06T04:43:48;99737.66;;;7.98;nan
63556;BME280;49700;48.072;7.800;2024-03-06T04:49:53;99740.81;;;8.05;nan
63556;BME280;49700;48.072;7.800;2024-03-06T05:00:08;99755.94;;;8.15;nan
63556;BME280;49700;48.072;7.800;2024-03-06T05:03:12;99748.88;;;8.17;nan
63556;BME280;49700;48.072;7.800;2024-03-06T05:06:37;99759.34;;;8.17;nan
63556;BME280;49700;48.072;7.800;2024-03-06T05:09:39;99754.94;;;8.18;nan
63556;BME280;49700;48.072;7.800;2024-03-06T05:12:43;99762.78;;;8.18;nan
63556;BME280;49700;48.072;7.800;2024-03-06T05:15:40;99765.34;;;8.19;nan
63556;BME280;49700;48.072;7.800;2024-03-06T05:18:23;99766.28;;;8.18;nan
63556;BME280;49700;48.072;7.800;2024-03-06T05:21:43;99770.50;;;8.21;nan
63556;BME280;49700;48.072;7.800;2024-03-06T05:25:11;99764.41;;;8.20;nan
63556;BME280;49700;48.072;7.800;2024-03-06T06:01:22;99799.59;;;7.97;74.35
63556;BME280;49700;48.072;7.800;2024-03-06T06:03:48;99803.88;;;7.98;74.40
63556;BME280;49700;48.072;7.800;2024-03-06T06:06:15;99806.66;;;7.95;74.34
63556;BME280;49700;48.072;7.800;2024-03-06T06:08:40;99810.97;;;7.96;74.44
63556;BME280;49700;48.072;7.800;2024-03-06T06:11:06;99801.38;;;7.97;74.60
63556;BME280;49700;48.072;7.800;2024-03-06T06:13:31;99806.59;;;7.97;74.51
63556;BME280;49700;48.072;7.800;2024-03-06T06:15:59;99818.91;;;7.95;74.50
63556;BME280;49700;48.072;7.800;2024-03-06T06:18:28;99819.13;;;7.90;74.62
63556;BME280;49700;48.072;7.800;2024-03-06T06:20:53;99820.13;;;7.88;74.71
63556;BME280;49700;48.072;7.800;2024-03-06T06:23:19;99827.22;;;7.86;74.79
63556;BME280;49700;48.072;7.800;2024-03-06T06:25:45;99832.44;;;7.86;74.64
63556;BME280;49700;48.072;7.800;2024-03-06T06:28:11;99836.06;;;7.83;74.58
63556;BME280;49700;48.072;7.800;2024-03-06T06:30:36;99840.50;;;7.81;74.51
63556;BME280;49700;48.072;7.800;2024-03-06T06:33:04;99843.34;;;7.76;74.73
63556;BME280;49700;48.072;7.800;2024-03-06T06:35:30;99839.94;;;7.74;74.85
63556;BME280;49700;48.072;7.800;2024-03-06T06:37:55;99851.31;;;7.73;74.92
63556;BME280;49700;48.072;7.800;2024-03-06T06:40:21;99857.56;;;7.71;75.11
63556;BME280;49700;48.072;7.800;2024-03-06T06:42:48;99850.69;;;7.68;75.12
63556;BME280;49700;48.072;7.800;2024-03-06T06:45:18;99850.69;;;7.68;75.10
63556;BME280;49700;48.072;7.800;2024-03-06T06:47:44;99862.09;;;7.67;75.07
63556;BME280;49700;48.072;7.800;2024-03-06T06:50:10;99868.22;;;7.66;75.28
63556;BME280;49700;48.072;7.800;2024-03-06T06:52:40;99864.69;;;7.67;75.32
63556;BME280;49700;48.072;7.800;2024-03-06T06:55:06;99868.94;;;7.70;75.37
63556;BME280;49700;48.072;7.800;2024-03-06T06:57:32;99862.72;;;7.72;75.50
63556;BME280;49700;48.072;7.800;2024-03-06T06:59:59;99869.56;;;7.75;75.34
63556;BME280;49700;48.072;7.800;2024-03-06T07:02:24;99877.25;;;7.78;75.08
63556;BME280;49700;48.072;7.800;2024-03-06T07:04:50;99876.53;;;7.74;75.27
63556;BME280;49700;48.072;7.800;2024-03-06T07:07:15;99886.16;;;7.74;75.40
63556;BME280;49700;48.072;7.800;2024-03-06T07:09:42;99882.06;;;7.68;75.40
63556;BME280;49700;48.072;7.800;2024-03-06T07:12:08;99890.06;;;7.65;75.56
63556;BME280;49700;48.072;7.800;2024-03-06T07:14:34;99891.00;;;7.64;75.85
63556;BME280;49700;48.072;7.800;2024-03-06T07:17:00;99894.44;;;7.65;75.97
63556;BME280;49700;48.072;7.800;2024-03-06T07:19:26;99900.44;;;7.67;75.87
63556;BME280;49700;48.072;7.800;2024-03-06T07:21:51;99903.97;;;7.66;75.67
63556;BME280;49700;48.072;7.800;2024-03-06T07:24:17;99905.91;;;7.62;75.57
63556;BME280;49700;48.072;7.800;2024-03-06T07:26:43;99915.78;;;7.56;75.42
63556;BME280;49700;48.072;7.800;2024-03-06T07:29:08;99914.16;;;7.53;75.43
63556;BME280;49700;48.072;7.800;2024-03-06T07:31:40;99915.28;;;7.47;75.44
63556;BME280;49700;48.072;7.800;2024-03-06T07:34:07;99919.81;;;7.44;75.53
63556;BME280;49700;48.072;7.800;2024-03-06T07:36:34;99915.56;;;7.41;75.68
63556;BME280;49700;48.072;7.800;2024-03-06T07:39:00;99925.97;;;7.43;75.36
63556;BME280;49700;48.072;7.800;2024-03-06T07:41:26;99913.09;;;7.38;75.51
63556;BME280;49700;48.072;7.800;2024-03-06T07:43:51;99923.63;;;7.37;75.69
63556;BME280;49700;48.072;7.800;2024-03-06T07:46:17;99922.97;;;7.31;75.23
63556;BME280;49700;48.072;7.800;2024-03-06T07:48:42;99931.75;;;7.30;75.74
63556;BME280;49700;48.072;7.800;2024-03-06T07:51:09;99935.19;;;7.31;75.63
63556;BME280;49700;48.072;7.800;2024-03-06T07:53:35;99930.75;;;7.33;75.72
63556;BME280;49700;48.072;7.800;2024-03-06T07:56:01;99930.59;;;7.36;75.56
63556;BME280;49700;48.072;7.800;2024-03-06T07:58:26;99928.78;;;7.38;75.73
63556;BME280;49700;48.072;7.800;2024-03-06T08:00:52;99936.69;;;7.37;75.88
63556;BME280;49700;48.072;7.800;2024-03-06T08:03:21;99934.84;;;7.39;75.78
63556;BME280;49700;48.072;7.800;2024-03-06T08:05:51;99937.47;;;7.39;75.62
63556;BME280;49700;48.072;7.800;2024-03-06T08:08:17;99946.28;;;7.36;75.82
63556;BME280;49700;48.072;7.800;2024-03-06T08:10:43;99942.78;;;7.37;75.99
63556;BME280;49700;48.072;7.800;2024-03-06T08:13:10;99942.88;;;7.34;75.98
63556;BME280;49700;48.072;7.800;2024-03-06T08:15:35;99949.00;;;7.35;75.77
63556;BME280;49700;48.072;7.800;2024-03-06T08:18:01;99939.53;;;7.32;75.82
63556;BME280;49700;48.072;7.800;2024-03-06T08:20:26;99942.97;;;7.32;75.65
63556;BME280;49700;48.072;7.800;2024-03-06T08:22:52;99940.41;;;7.31;75.90
63556;BME280;49700;48.072;7.800;2024-03-06T08:25:18;99942.19;;;7.30;75.76
63556;BME280;49700;48.072;7.800;2024-03-06T08:27:43;99942.13;;;7.32;75.80
63556;BME280;49700;48.072;7.800;2024-03-06T08:30:09;99948.91;;;7.36;75.65
63556;BME280;49700;48.072;7.800;2024-03-06T08:32:36;99950.38;;;7.42;75.63
63556;BME280;49700;48.072;7.800;2024-03-06T08:35:03;99949.34;;;7.46;75.64
63556;BME280;49700;48.072;7.800;2024-03-06T08:37:32;99950.00;;;7.51;75.10
63556;BME280;49700;48.072;7.800;2024-03-06T08:40:01;99947.44;;;7.49;75.01
63556;BME280;49700;48.072;7.800;2024-03-06T08:42:28;99954.28;;;7.52;75.20
63556;BME280;49700;48.072;7.800;2024-03-06T08:44:53;99955.97;;;7.53;74.98
63556;BME280;49700;48.072;7.800;2024-03-06T08:47:19;99954.16;;;7.55;75.04
63556;BME280;49700;48.072;7.800;2024-03-06T08:49:45;99958.38;;;7.58;74.68
63556;BME280;49700;48.072;7.800;2024-03-06T08:52:10;99966.22;;;7.58;74.81
63556;BME280;49700;48.072;7.800;2024-03-06T08:54:36;99973.78;;;7.64;74.27
63556;BME280;49700;48.072;7.800;2024-03-06T08:57:03;99973.03;;;7.62;74.07
63556;BME280;49700;48.072;7.800;2024-03-06T08:59:29;99980.94;;;7.60;74.32
63556;BME280;49700;48.072;7.800;2024-03-06T09:01:55;99980.00;;;7.61;74.59
63556;BME280;49700;48.072;7.800;2024-03-06T09:04:24;99979.75;;;7.67;73.67
63556;BME280;49700;48.072;7.800;2024-03-06T09:06:49;99982.50;;;7.64;73.99
63556;BME280;49700;48.072;7.800;2024-03-06T09:09:14;99979.81;;;7.66;74.09
63556;BME280;49700;48.072;7.800;2024-03-06T09:11:43;99984.81;;;7.70;73.79
63556;BME280;49700;48.072;7.800;2024-03-06T09:14:09;99983.69;;;7.76;73.67
63556;BME280;49700;48.072;7.800;2024-03-06T09:16:38;99986.94;;;7.81;73.33
63556;BME280;49700;48.072;7.800;2024-03-06T09:19:03;99990.19;;;7.86;73.19
63556;BME280;49700;48.072;7.800;2024-03-06T09:21:28;99989.06;;;7.92;73.23
63556;BME280;49700;48.072;7.800;2024-03-06T09:23:54;99981.72;;;8.00;72.93
63556;BME280;49700;48.072;7.800;2024-03-06T09:26:19;99978.75;;;8.08;72.49
63556;BME280;49700;48.072;7.800;2024-03-06T09:28:46;99981.75;;;8.17;72.36
63556;BME280;49700;48.072;7.800;2024-03-06T09:31:11;99989.19;;;8.27;72.16
63556;BME280;49700;48.072;7.800;2024-03-06T09:33:39;99990.31;;;8.40;71.89
63556;BME280;49700;48.072;7.800;2024-03-06T09:36:05;99989.69;;;8.52;71.46
63556;BME280;49700;48.072;7.800;2024-03-06T09:38:31;99990.16;;;8.60;71.30
63556;BME280;49700;48.072;7.800;2024-03-06T09:40:56;99999.22;;;8.72;70.76
63556;BME280;49700;48.072;7.800;2024-03-06T09:43:22;99990.03;;;8.81;70.51
63556;BME280;49700;48.072;7.800;2024-03-06T09:45:48;99988.72;;;8.90;70.28
63556;BME280;49700;48.072;7.800;2024-03-06T09:48:17;99997.88;;;8.98;69.88
63556;BME280;49700;48.072;7.800;2024-03-06T09:50:46;99994.53;;;9.12;69.46
63556;BME280;49700;48.072;7.800;2024-03-06T09:53:14;99991.22;;;9.26;69.30
63556;BME280;49700;48.072;7.800;2024-03-06T09:55:41;99994.81;;;9.41;68.18
63556;BME280;49700;48.072;7.800;2024-03-06T09:58:07;99996.66;;;9.39;67.75
63556;BME280;49700;48.072;7.800;2024-03-06T10:00:34;100001.00;;;9.40;67.92
63556;BME280;49700;48.072;7.800;2024-03-06T10:03:02;100003.38;;;9.44;68.02
63556;BME280;49700;48.072;7.800;2024-03-06T10:05:31;100004.75;;;9.51;67.58
63556;BME280;49700;48.072;7.800;2024-03-06T10:07:59;100005.34;;;9.57;67.42
63556;BME280;49700;48.072;7.800;2024-03-06T10:10:25;100005.19;;;9.60;67.33
63556;BME280;49700;48.072;7.800;2024-03-06T10:12:52;100008.25;;;9.68;66.98
63556;BME280;49700;48.072;7.800;2024-03-06T10:15:17;100015.09;;;9.70;66.99
63556;BME280;49700;48.072;7.800;2024-03-06T10:17:43;100007.56;;;9.80;67.01
63556;BME280;49700;48.072;7.800;2024-03-06T10:20:18;100011.50;;;9.89;64.74
63556;BME280;49700;48.072;7.800;2024-03-06T10:22:53;100009.28;;;9.81;65.54
63556;BME280;49700;48.072;7.800;2024-03-06T10:25:22;100003.19;;;9.81;65.63
63556;BME280;49700;48.072;7.800;2024-03-06T10:30:32;100003.78;;;9.70;66.02
63556;BME280;49700;48.072;7.800;2024-03-06T10:32:58;100008.25;;;9.68;66.06
63556;BME280;49700;48.072;7.800;2024-03-06T10:35:24;100003.22;;;9.63;65.90
63556;BME280;49700;48.072;7.800;2024-03-06T10:37:53;100003.16;;;9.65;66.12
63556;BME280;49700;48.072;7.800;2024-03-06T10:40:20;100011.03;;;9.65;65.92
63556;BME280;49700;48.072;7.800;2024-03-06T10:42:46;100007.63;;;9.63;65.92
63556;BME280;49700;48.072;7.800;2024-03-06T10:45:15;100005.00;;;9.63;66.30
63556;BME280;49700;48.072;7.800;2024-03-06T10:47:46;100007.22;;;9.70;65.99
63556;BME280;49700;48.072;7.800;2024-03-06T10:50:15;100010.88;;;9.68;66.03
63556;BME280;49700;48.072;7.800;2024-03-06T10:52:41;100006.47;;;9.68;65.97
63556;BME280;49700;48.072;7.800;2024-03-06T10:55:08;100011.03;;;9.65;66.08
63556;BME280;49700;48.072;7.800;2024-03-06T10:57:36;100000.59;;;9.63;66.19
63556;BME280;49700;48.072;7.800;2024-03-06T11:00:03;100005.63;;;9.68;66.52
63556;BME280;49700;48.072;7.800;2024-03-06T11:02:29;100002.31;;;9.64;66.53
63556;BME280;49700;48.072;7.800;2024-03-06T11:04:55;100007.47;;;9.66;66.51
63556;BME280;49700;48.072;7.800;2024-03-06T11:07:20;99995.13;;;9.68;65.76
63556;BME280;49700;48.072;7.800;2024-03-06T11:09:46;99997.91;;;9.65;65.32
63556;BME280;49700;48.072;7.800;2024-03-06T11:12:37;99994.03;;;9.56;65.09
63556;BME280;49700;48.072;7.800;2024-03-06T11:15:24;99992.47;;;9.52;65.00
63556;BME280;49700;48.072;7.800;2024-03-06T11:17:49;99998.25;;;9.59;64.85
63556;BME280;49700;48.072;7.800;2024-03-06T11:20:17;100006.88;;;9.61;64.75
63556;BME280;49700;48.072;7.800;2024-03-06T11:28:17;100005.84;;;9.63;64.02
63556;BME280;49700;48.072;7.800;2024-03-06T11:31:08;100006.78;;;9.62;64.21
63556;BME280;49700;48.072;7.800;2024-03-06T11:33:41;100005.56;;;9.69;64.25
63556;BME280;49700;48.072;7.800;2024-03-06T11:36:20;100002.66;;;9.74;64.36
63556;BME280;49700;48.072;7.800;2024-03-06T11:39:00;99998.53;;;9.86;64.15
63556;BME280;49700;48.072;7.800;2024-03-06T11:41:31;99989.81;;;10.01;62.88
63556;BME280;49700;48.072;7.800;2024-03-06T11:43:59;99996.00;;;10.00;62.54
63556;BME280;49700;48.072;7.800;2024-03-06T11:46:47;99993.28;;;10.02;62.88
63556;BME280;49700;48.072;7.800;2024-03-06T11:51:57;99981.16;;;10.15;62.60
63556;BME280;49700;48.072;7.800;2024-03-06T11:54:26;99982.22;;;10.28;62.52
63556;BME280;49700;48.072;7.800;2024-03-06T11:56:54;99980.56;;;10.41;62.31
63556;BME280;49700;48.072;7.800;2024-03-06T11:59:26;99975.56;;;10.53;62.07
63556;BME280;49700;48.072;7.800;2024-03-06T12:02:00;99972.50;;;10.60;62.00
63556;BME280;49700;48.072;7.800;2024-03-06T12:04:30;99972.81;;;10.70;61.84
63556;BME280;49700;48.072;7.800;2024-03-06T12:06:59;99978.59;;;10.61;59.95
63556;BME280;49700;48.072;7.800;2024-03-06T12:09:25;99967.31;;;10.75;60.26
63556;BME280;49700;48.072;7.800;2024-03-06T12:11:52;99963.28;;;10.83;59.74
63556;BME280;49700;48.072;7.800;2024-03-06T12:14:19;99959.44;;;11.03;59.95
63556;BME280;49700;48.072;7.800;2024-03-06T12:16:58;99961.44;;;11.28;59.36
63556;BME280;49700;48.072;7.800;2024-03-06T12:19:28;99961.84;;;11.51;58.77
63556;BME280;49700;48.072;7.800;2024-03-06T12:21:55;99966.22;;;11.65;58.21
63556;BME280;49700;48.072;7.800;2024-03-06T12:24:20;99952.97;;;11.66;58.06
63556;BME280;49700;48.072;7.800;2024-03-06T12:26:46;99957.31;;;11.67;58.37
63556;BME280;49700;48.072;7.800;2024-03-06T12:29:18;99952.81;;;11.69;58.36
63556;BME280;49700;48.072;7.800;2024-03-06T12:31:44;99959.75;;;11.56;58.02
63556;BME280;49700;48.072;7.800;2024-03-06T12:34:13;99958.38;;;11.50;58.26
63556;BME280;49700;48.072;7.800;2024-03-06T12:36:40;99956.66;;;11.49;58.22
63556;BME280;49700;48.072;7.800;2024-03-06T12:39:06;99953.75;;;11.54;57.13
63556;BME280;49700;48.072;7.800;2024-03-06T12:41:51;99947.66;;;11.54;57.24
63556;BME280;49700;48.072;7.800;2024-03-06T12:44:17;99955.63;;;11.52;57.74
63556;BME280;49700;48.072;7.800;2024-03-06T12:46:42;99951.19;;;11.52;57.84
63556;BME280;49700;48.072;7.800;2024-03-06T12:49:08;99948.69;;;11.51;57.64
63556;BME280;49700;48.072;7.800;2024-03-06T12:51:33;99951.50;;;11.48;57.85
63556;BME280;49700;48.072;7.800;2024-03-06T12:53:59;99947.16;;;11.47;57.92
63556;BME280;49700;48.072;7.800;2024-03-06T12:56:26;99950.94;;;11.43;58.08
63556;BME280;49700;48.072;7.800;2024-03-06T12:58:51;99958.66;;;11.32;57.50
63556;BME280;49700;48.072;7.800;2024-03-06T13:01:17;99942.66;;;11.20;58.05
63556;BME280;49700;48.072;7.800;2024-03-06T13:03:43;99945.66;;;11.14;58.52
63556;BME280;49700;48.072;7.800;2024-03-06T13:06:08;99939.84;;;11.09;58.74
63556;BME280;49700;48.072;7.800;2024-03-06T13:08:34;99946.13;;;11.06;58.86
63556;BME280;49700;48.072;7.800;2024-03-06T13:10:59;99947.91;;;11.06;59.46
63556;BME280;49700;48.072;7.800;2024-03-06T13:13:25;99947.34;;;11.01;59.35
63556;BME280;49700;48.072;7.800;2024-03-06T13:15:51;99945.75;;;10.98;59.53
63556;BME280;49700;48.072;7.800;2024-03-06T13:18:17;99939.00;;;10.94;59.50
63556;BME280;49700;48.072;7.800;2024-03-06T13:20:43;99934.75;;;10.92;59.71
63556;BME280;49700;48.072;7.800;2024-03-06T13:23:09;99941.16;;;11.02;59.90
63556;BME280;49700;48.072;7.800;2024-03-06T13:25:34;99934.22;;;11.15;59.53
63556;BME280;49700;48.072;7.800;2024-03-06T13:28:00;99937.78;;;11.28;59.40
63556;BME280;49700;48.072;7.800;2024-03-06T13:30:26;99931.13;;;11.37;59.10
63556;BME280;49700;48.072;7.800;2024-03-06T13:32:52;99932.69;;;11.25;56.93
63556;BME280;49700;48.072;7.800;2024-03-06T13:35:17;99925.09;;;10.92;55.48
63556;BME280;49700;48.072;7.800;2024-03-06T13:37:43;99929.97;;;10.84;56.42
63556;BME280;49700;48.072;7.800;2024-03-06T13:40:10;99938.03;;;10.95;56.66
63556;BME280;49700;48.072;7.800;2024-03-06T13:42:38;99935.53;;;11.08;56.08
63556;BME280;49700;48.072;7.800;2024-03-06T13:45:04;99935.03;;;11.01;55.41
63556;BME280;49700;48.072;7.800;2024-03-06T13:47:30;99933.66;;;11.10;55.34
63556;BME280;49700;48.072;7.800;2024-03-06T13:49:56;99947.53;;;11.12;55.40
63556;BME280;49700;48.072;7.800;2024-03-06T13:52:21;99931.69;;;11.14;56.22
63556;BME280;49700;48.072;7.800;2024-03-06T13:54:49;99946.44;;;11.16;57.28
63556;BME280;49700;48.072;7.800;2024-03-06T13:57:15;99944.75;;;11.15;57.57
63556;BME280;49700;48.072;7.800;2024-03-06T13:59:41;99951.50;;;11.05;58.24
63556;BME280;49700;48.072;7.800;2024-03-06T14:02:07;99938.81;;;11.12;58.25
63556;BME280;49700;48.072;7.800;2024-03-06T14:04:32;99940.22;;;11.03;58.05
63556;BME280;49700;48.072;7.800;2024-03-06T14:06:59;99939.06;;;10.93;58.05
63556;BME280;49700;48.072;7.800;2024-03-06T14:09:25;99944.13;;;10.96;58.39
63556;BME280;49700;48.072;7.800;2024-03-06T14:11:51;99943.56;;;10.91;58.18
63556;BME280;49700;48.072;7.800;2024-03-06T14:14:17;99946.38;;;10.88;58.09
63556;BME280;49700;48.072;7.800;2024-03-06T14:16:44;99955.88;;;10.90;58.38
63556;BME280;49700;48.072;7.800;2024-03-06T14:19:10;99952.22;;;10.93;58.31
63556;BME280;49700;48.072;7.800;2024-03-06T14:21:36;99954.00;;;10.92;57.76
63556;BME280;49700;48.072;7.800;2024-03-06T14:24:03;99955.03;;;10.90;57.50
63556;BME280;49700;48.072;7.800;2024-03-06T14:26:32;99959.88;;;10.81;57.12
63556;BME280;49700;48.072;7.800;2024-03-06T14:29:01;99953.41;;;10.87;56.93
63556;BME280;49700;48.072;7.800;2024-03-06T14:31:32;99960.47;;;10.87;56.89
63556;BME280;49700;48.072;7.800;2024-03-06T14:33:57;99956.50;;;10.79;56.09
63556;BME280;49700;48.072;7.800;2024-03-06T14:36:23;99960.06;;;10.78;56.35
63556;BME280;49700;48.072;7.800;2024-03-06T14:38:52;99959.81;;;10.83;56.62
63556;BME280;49700;48.072;7.800;2024-03-06T14:41:19;99960.34;;;10.74;56.91
63556;BME280;49700;48.072;7.800;2024-03-06T14:43:45;99961.72;;;10.65;57.22
63556;BME280;49700;48.072;7.800;2024-03-06T14:46:11;99967.69;;;10.53;57.70
63556;BME280;49700;48.072;7.800;2024-03-06T14:48:38;99971.00;;;10.56;57.99
63556;BME280;49700;48.072;7.800;2024-03-06T14:51:07;99976.16;;;10.42;58.43
63556;BME280;49700;48.072;7.800;2024-03-06T14:53:32;99975.16;;;10.45;58.56
63556;BME280;49700;48.072;7.800;2024-03-06T14:55:58;99978.53;;;10.47;58.27
63556;BME280;49700;48.072;7.800;2024-03-06T14:58:23;99978.72;;;10.44;58.64
63556;BME280;49700;48.072;7.800;2024-03-06T15:00:50;99984.16;;;10.40;58.82
63556;BME280;49700;48.072;7.800;2024-03-06T15:03:16;99971.28;;;10.36;59.41
63556;BME280;49700;48.072;7.800;2024-03-06T15:05:43;99984.59;;;10.33;59.60